Time;durP1;ratioP1;P1;durP2;ratioP2;P2;SDS_P1;SDS_P2;PMS_P1;PMS_P2;Temp;Humidity;BMP_temperature;BMP_pressure;BME280_temperature;BME280_humidity;BME280_pressure;Samples;Min_cycle;Max_cycle;Signal;HPM_P1;HPM_P2
2021/05/02 00:02:52;;;;;;;30.67;24.58;;;9.30;99.90;;;;;;6257911;28;20117;-78
2021/05/02 00:05:54;;;;;;;25.48;22.00;;;9.20;99.90;;;;;;6257515;28;20046;-77
2021/05/02 00:08:55;;;;;;;34.50;26.35;;;9.20;99.90;;;;;;6257110;28;20045;-77
2021/05/02 00:11:57;;;;;;;32.92;26.50;;;9.10;99.90;;;;;;6256721;28;20049;-78
2021/05/02 00:14:59;;;;;;;34.67;27.08;;;9.10;99.90;;;;;;6257845;28;20088;-78
2021/05/02 00:18:02;;;;;;;34.65;25.40;;;9.10;99.90;;;;;;6256175;28;20056;-78
2021/05/02 00:21:08;;;;;;;36.10;28.85;;;9.10;99.90;;;;;;6255921;28;20042;-77
2021/05/02 00:24:10;;;;;;;35.80;26.67;;;9.10;99.90;;;;;;6256092;28;20526;-78
2021/05/02 00:27:12;;;;;;;36.08;28.05;;;9.10;99.90;;;;;;6255456;28;20053;-77
2021/05/02 00:30:16;;;;;;;30.95;26.27;;;9.10;99.90;;;;;;6255165;28;20064;-78
2021/05/02 00:33:19;;;;;;;28.02;21.65;;;9.00;99.90;;;;;;6254971;28;20104;-78
2021/05/02 00:36:20;;;;;;;28.42;21.65;;;9.00;99.90;;;;;;6257818;28;20057;-78
2021/05/02 00:39:22;;;;;;;29.13;20.38;;;9.00;99.90;;;;;;6259363;28;20061;-78
2021/05/02 00:42:26;;;;;;;28.50;24.13;;;9.00;99.90;;;;;;6258320;28;20041;-78
2021/05/02 00:45:47;;;;;;;28.75;23.10;;;9.10;99.90;;;;;;6258617;28;20061;-77
2021/05/02 00:48:59;;;;;;;30.02;21.88;;;9.10;99.90;;;;;;6256567;28;20060;-78
2021/05/02 00:52:10;;;;;;;23.80;19.98;;;9.00;99.90;;;;;;6255067;28;20042;-78
2021/05/02 00:55:14;;;;;;;25.90;22.17;;;8.90;99.90;;;;;;6258077;28;20073;-78
2021/05/02 00:58:42;;;;;;;24.40;21.67;;;8.90;99.90;;;;;;6258138;28;20053;-77
2021/05/02 01:01:45;;;;;;;30.73;24.40;;;8.90;99.90;;;;;;6255255;28;20045;-77
2021/05/02 01:04:47;;;;;;;31.98;25.33;;;8.90;99.90;;;;;;6253466;28;20049;-78
2021/05/02 01:07:54;;;;;;;33.90;24.58;;;8.90;99.90;;;;;;6254113;28;20144;-77
2021/05/02 01:10:58;;;;;;;32.03;21.95;;;8.80;99.90;;;;;;6255123;28;20148;-77
2021/05/02 01:14:02;;;;;;;28.92;22.27;;;8.80;99.90;;;;;;6253694;28;20125;-78
2021/05/02 01:17:07;;;;;;;27.20;23.63;;;8.80;99.90;;;;;;6255807;28;20131;-78
2021/05/02 01:20:10;;;;;;;31.38;22.90;;;8.80;99.90;;;;;;6255435;28;20128;-78
2021/05/02 01:23:23;;;;;;;35.20;25.45;;;8.70;99.90;;;;;;6257061;28;20088;-78
2021/05/02 01:26:25;;;;;;;31.08;23.05;;;8.70;99.90;;;;;;6256597;28;20068;-77
2021/05/02 01:29:27;;;;;;;28.25;20.98;;;8.70;99.90;;;;;;6254471;28;20049;-77
2021/05/02 01:32:29;;;;;;;25.65;21.88;;;8.70;99.90;;;;;;6254271;28;20050;-77
2021/05/02 01:35:31;;;;;;;24.83;21.48;;;8.70;99.90;;;;;;6254498;28;20050;-77
2021/05/02 01:38:34;;;;;;;23.30;20.55;;;8.70;99.90;;;;;;6254265;28;20053;-78
2021/05/02 01:41:35;;;;;;;25.52;22.33;;;8.70;99.90;;;;;;6253856;28;20125;-78
2021/05/02 01:44:37;;;;;;;23.70;21.08;;;8.70;99.90;;;;;;6254796;28;20068;-78
2021/05/02 01:47:43;;;;;;;23.70;20.05;;;8.60;99.90;;;;;;6254805;28;20308;-78
2021/05/02 01:50:47;;;;;;;23.73;20.20;;;8.60;99.90;;;;;;6253359;28;20060;-78
2021/05/02 01:53:50;;;;;;;24.25;18.98;;;8.50;99.90;;;;;;6253474;28;20053;-78
2021/05/02 01:56:51;;;;;;;22.92;20.08;;;8.50;99.90;;;;;;6253435;28;20069;-78
2021/05/02 01:59:54;;;;;;;25.90;21.38;;;8.40;99.90;;;;;;6253146;28;20099;-78
2021/05/02 02:03:00;;;;;;;23.88;20.75;;;8.40;99.90;;;;;;6255200;28;20116;-78
2021/05/02 02:06:02;;;;;;;22.63;20.30;;;8.40;99.90;;;;;;6255753;28;20124;-77
2021/05/02 02:09:07;;;;;;;25.23;20.80;;;8.40;99.90;;;;;;6254417;28;20049;-78
2021/05/02 02:12:09;;;;;;;18.85;16.27;;;8.40;99.90;;;;;;6254615;28;20042;-78
2021/05/02 02:15:12;;;;;;;20.83;18.58;;;8.40;99.90;;;;;;6253873;28;20053;-78
2021/05/02 02:18:16;;;;;;;22.13;19.67;;;8.40;99.90;;;;;;6251548;28;20126;-78
2021/05/02 02:21:20;;;;;;;23.83;18.70;;;8.40;99.90;;;;;;6251681;28;20065;-78
2021/05/02 02:24:41;;;;;;;25.85;20.90;;;8.40;99.90;;;;;;6253522;28;20041;-78
2021/05/02 02:27:43;;;;;;;24.17;21.60;;;8.40;99.90;;;;;;6252627;28;20045;-77
2021/05/02 02:30:46;;;;;;;24.92;19.95;;;8.40;99.90;;;;;;6254761;28;20137;-78
2021/05/02 02:33:48;;;;;;;32.88;20.15;;;8.40;99.90;;;;;;6255737;28;20105;-78
2021/05/02 02:36:50;;;;;;;26.63;21.30;;;8.30;99.90;;;;;;6255967;28;20114;-77
2021/05/02 02:39:54;;;;;;;22.02;19.60;;;8.30;99.90;;;;;;6255677;28;20077;-78
2021/05/02 02:42:56;;;;;;;22.98;20.58;;;8.40;99.90;;;;;;6260386;28;20056;-77
2021/05/02 02:45:59;;;;;;;24.40;19.23;;;8.30;99.90;;;;;;6258369;28;20490;-78
2021/05/02 02:49:05;;;;;;;25.55;21.60;;;8.30;99.90;;;;;;6258689;28;20084;-78
2021/05/02 02:52:09;;;;;;;24.33;21.60;;;8.30;99.90;;;;;;6258176;28;20045;-78
2021/05/02 02:55:13;;;;;;;22.92;20.55;;;8.30;99.90;;;;;;6257436;28;20085;-78
2021/05/02 02:58:16;;;;;;;28.90;21.38;;;8.30;99.90;;;;;;6258308;28;20053;-77
2021/05/02 03:01:17;;;;;;;22.10;19.73;;;8.30;99.90;;;;;;6258123;28;20499;-77
2021/05/02 03:04:19;;;;;;;22.65;20.02;;;8.30;99.90;;;;;;6250176;28;20148;-77
2021/05/02 03:07:24;;;;;;;20.20;17.92;;;8.30;99.90;;;;;;6250600;28;20132;-77
2021/05/02 03:10:28;;;;;;;23.27;17.73;;;8.40;99.90;;;;;;6249914;28;20054;-77
2021/05/02 03:13:29;;;;;;;21.58;17.75;;;8.40;99.90;;;;;;6250129;28;20131;-77
2021/05/02 03:16:33;;;;;;;20.15;16.25;;;8.40;99.90;;;;;;6250121;28;20041;-76
2021/05/02 03:19:40;;;;;;;21.15;16.00;;;8.30;99.90;;;;;;6250110;28;20052;-76
2021/05/02 03:22:45;;;;;;;19.67;15.73;;;8.30;99.90;;;;;;6250219;28;20104;-76
2021/05/02 03:25:50;;;;;;;21.10;17.98;;;8.20;99.90;;;;;;6248518;28;20045;-77
2021/05/02 03:28:54;;;;;;;26.90;20.00;;;8.30;99.90;;;;;;6249539;28;20072;-76
2021/05/02 03:31:57;;;;;;;21.90;19.52;;;8.20;99.90;;;;;;6250508;28;20049;-77
2021/05/02 03:35:00;;;;;;;22.77;19.48;;;8.20;99.90;;;;;;6250984;28;20084;-77
2021/05/02 03:38:10;;;;;;;26.50;21.50;;;8.20;99.90;;;;;;6250111;28;20104;-78
2021/05/02 03:41:14;;;;;;;26.10;23.00;;;8.20;99.90;;;;;;6249222;28;20045;-77
2021/05/02 03:44:15;;;;;;;27.35;21.65;;;8.10;99.90;;;;;;6249712;28;20037;-77
2021/05/02 03:47:17;;;;;;;26.13;19.65;;;8.10;99.90;;;;;;6250233;28;20045;-77
2021/05/02 03:50:18;;;;;;;24.50;21.00;;;8.00;99.90;;;;;;6249628;28;20128;-77
2021/05/02 03:53:19;;;;;;;25.80;20.33;;;8.10;99.90;;;;;;6248036;28;20489;-77
2021/05/02 03:56:37;;;;;;;27.45;21.35;;;8.00;99.90;;;;;;6249441;28;20111;-77
2021/05/02 03:59:38;;;;;;;26.95;21.05;;;8.00;99.90;;;;;;6249536;28;20049;-76
2021/05/02 04:02:39;;;;;;;28.80;22.45;;;8.00;99.90;;;;;;6249774;28;20507;-77
2021/05/02 04:05:42;;;;;;;26.48;19.88;;;7.90;99.90;;;;;;6249494;28;20049;-78
2021/05/02 04:08:43;;;;;;;25.50;22.80;;;7.90;99.90;;;;;;6248707;28;20049;-77
2021/05/02 04:11:46;;;;;;;23.63;20.88;;;7.90;99.90;;;;;;6248603;28;20483;-77
2021/05/02 04:14:47;;;;;;;29.95;22.40;;;7.80;99.90;;;;;;6249297;28;20211;-77
2021/05/02 04:17:49;;;;;;;27.63;23.92;;;7.80;99.90;;;;;;6248504;28;20057;-77
2021/05/02 04:20:50;;;;;;;24.58;20.42;;;7.80;99.90;;;;;;6248542;28;20175;-77
2021/05/02 04:23:51;;;;;;;31.10;24.05;;;7.80;99.90;;;;;;6248441;28;20049;-77
2021/05/02 04:26:55;;;;;;;33.20;23.90;;;7.80;99.90;;;;;;6249787;28;20077;-77
2021/05/02 04:29:57;;;;;;;30.42;22.92;;;7.70;99.90;;;;;;6248651;28;20073;-77
2021/05/02 04:32:59;;;;;;;28.27;22.30;;;7.70;99.90;;;;;;6249391;28;20056;-78
2021/05/02 04:36:00;;;;;;;29.90;20.95;;;7.70;99.90;;;;;;6252815;28;20061;-77
2021/05/02 04:39:03;;;;;;;27.50;22.02;;;7.70;99.90;;;;;;6251940;28;20192;-77
2021/05/02 04:42:06;;;;;;;30.33;23.35;;;7.70;99.90;;;;;;6250793;28;20133;-78
2021/05/02 04:45:09;;;;;;;26.45;23.63;;;7.80;99.90;;;;;;6251108;28;20099;-78
2021/05/02 04:48:10;;;;;;;32.58;24.80;;;7.70;99.90;;;;;;6250223;28;20101;-78
2021/05/02 04:51:13;;;;;;;30.85;23.50;;;7.70;99.90;;;;;;6250581;28;20140;-77
2021/05/02 04:54:15;;;;;;;31.83;25.17;;;7.70;99.90;;;;;;6248300;28;20053;-78
2021/05/02 04:57:17;;;;;;;33.63;24.52;;;7.80;99.90;;;;;;6250421;28;20050;-78
2021/05/02 05:00:19;;;;;;;37.35;25.23;;;7.80;99.90;;;;;;6251223;28;20105;-78
2021/05/02 05:03:21;;;;;;;29.85;23.40;;;7.90;99.90;;;;;;6250244;28;20087;-78
2021/05/02 05:06:23;;;;;;;25.48;21.58;;;7.80;99.90;;;;;;6249915;28;20419;-78
2021/05/02 05:09:24;;;;;;;32.05;22.05;;;7.90;99.90;;;;;;6248223;28;20057;-77
2021/05/02 05:12:27;;;;;;;25.35;21.63;;;7.90;99.90;;;;;;6248100;28;20095;-77
2021/05/02 05:15:28;;;;;;;29.40;24.33;;;7.90;99.90;;;;;;6248547;28;20180;-77
2021/05/02 05:18:30;;;;;;;24.25;21.55;;;7.90;99.90;;;;;;6247458;28;20110;-76
2021/05/02 05:21:31;;;;;;;28.15;22.15;;;8.00;99.90;;;;;;6247580;28;20124;-77
2021/05/02 05:24:32;;;;;;;29.15;21.10;;;8.00;99.90;;;;;;6248266;28;20517;-77
2021/05/02 05:27:35;;;;;;;28.00;20.65;;;8.10;99.90;;;;;;6249106;28;20092;-77
2021/05/02 05:30:36;;;;;;;23.08;20.30;;;8.30;99.90;;;;;;6248280;28;20069;-78
2021/05/02 05:33:37;;;;;;;24.50;21.80;;;8.60;99.90;;;;;;6248859;28;20068;-78
2021/05/02 05:36:39;;;;;;;24.83;20.45;;;8.70;99.40;;;;;;6248659;28;20514;-77
2021/05/02 05:39:40;;;;;;;24.20;20.55;;;8.90;98.50;;;;;;6248053;28;20141;-77
2021/05/02 05:42:42;;;;;;;23.50;20.52;;;9.00;97.90;;;;;;6248595;28;20084;-77
2021/05/02 05:45:44;;;;;;;21.77;18.15;;;9.00;97.80;;;;;;6247966;28;20076;-77
2021/05/02 05:48:45;;;;;;;27.85;20.55;;;9.00;97.40;;;;;;6247936;28;20065;-77
2021/05/02 05:51:48;;;;;;;21.45;18.17;;;9.10;97.30;;;;;;6247661;28;20196;-77
2021/05/02 05:54:50;;;;;;;24.40;20.35;;;9.20;97.00;;;;;;6248297;28;20100;-77
2021/05/02 05:57:52;;;;;;;21.52;19.30;;;9.30;96.90;;;;;;6249792;28;20614;-78
2021/05/02 06:00:53;;;;;;;22.05;19.63;;;9.40;96.20;;;;;;6249004;28;20591;-77
2021/05/02 06:03:56;;;;;;;30.50;20.13;;;9.40;95.80;;;;;;6244923;28;20152;-78
2021/05/02 06:06:58;;;;;;;20.52;18.15;;;9.50;95.60;;;;;;6241728;28;20069;-77
2021/05/02 06:09:59;;;;;;;19.73;17.48;;;9.50;95.30;;;;;;6226140;28;20140;-78
2021/05/02 06:13:01;;;;;;;22.42;18.30;;;9.60;95.00;;;;;;6227456;28;20077;-78
2021/05/02 06:16:02;;;;;;;22.90;19.05;;;9.70;94.60;;;;;;6225150;28;20496;-77
2021/05/02 06:19:04;;;;;;;20.63;17.17;;;9.80;94.40;;;;;;6231814;28;20113;-77
2021/05/02 06:22:05;;;;;;;20.10;17.92;;;9.90;94.10;;;;;;6230954;28;20110;-77
2021/05/02 06:25:08;;;;;;;21.95;18.60;;;10.00;94.00;;;;;;6230432;28;20129;-77
2021/05/02 06:28:10;;;;;;;22.40;17.75;;;10.10;93.50;;;;;;6230242;28;20438;-76
2021/05/02 06:31:12;;;;;;;20.70;18.20;;;10.30;93.20;;;;;;6229979;28;20136;-78
2021/05/02 06:34:13;;;;;;;19.90;17.73;;;10.60;92.90;;;;;;6231644;28;20045;-77
2021/05/02 06:37:14;;;;;;;19.42;17.50;;;10.90;91.80;;;;;;6233211;28;20092;-78
2021/05/02 06:40:16;;;;;;;22.58;19.27;;;10.90;91.20;;;;;;6229927;28;20139;-77
2021/05/02 06:43:18;;;;;;;20.75;18.55;;;10.70;91.40;;;;;;6231752;28;20054;-77
2021/05/02 06:46:28;;;;;;;23.25;19.33;;;10.70;91.50;;;;;;6232213;28;20049;-77
2021/05/02 06:49:29;;;;;;;22.33;19.98;;;10.60;91.40;;;;;;6229018;28;20463;-78
2021/05/02 06:52:31;;;;;;;22.38;19.42;;;10.70;91.70;;;;;;6229755;28;20084;-78
2021/05/02 06:55:32;;;;;;;21.30;18.90;;;10.70;91.40;;;;;;6228390;28;20569;-78
2021/05/02 06:58:34;;;;;;;26.50;20.52;;;10.90;90.90;;;;;;6227274;28;20069;-77
2021/05/02 07:01:36;;;;;;;23.23;19.00;;;11.00;90.60;;;;;;6227765;28;20112;-77
2021/05/02 07:04:37;;;;;;;20.30;17.80;;;11.00;90.20;;;;;;6228451;28;20038;-77
2021/05/02 07:07:38;;;;;;;21.58;17.85;;;11.10;90.30;;;;;;6230541;28;20214;-77
2021/05/02 07:10:39;;;;;;;20.08;17.83;;;11.10;90.40;;;;;;6231701;28;20057;-77
2021/05/02 07:13:42;;;;;;;23.58;19.13;;;11.10;90.20;;;;;;6230788;28;20538;-78
2021/05/02 07:16:43;;;;;;;20.35;17.95;;;11.10;90.10;;;;;;6230930;28;20116;-77
2021/05/02 07:19:44;;;;;;;24.27;20.17;;;11.10;89.70;;;;;;6230156;28;20053;-77
2021/05/02 07:22:51;;;;;;;19.98;16.98;;;11.00;89.60;;;;;;6230741;28;20053;-78
2021/05/02 07:25:53;;;;;;;21.13;18.70;;;11.00;89.70;;;;;;6230452;28;20046;-78
2021/05/02 07:28:55;;;;;;;19.48;16.92;;;10.90;90.10;;;;;;6229329;28;20492;-78
2021/05/02 07:31:56;;;;;;;19.63;17.73;;;11.10;90.20;;;;;;6229846;28;20670;-77
2021/05/02 07:34:58;;;;;;;19.83;17.60;;;11.30;88.40;;;;;;6228891;28;20085;-77
2021/05/02 07:37:59;;;;;;;19.80;15.73;;;11.50;86.10;;;;;;6228376;28;20046;-78
2021/05/02 07:41:01;;;;;;;21.40;18.10;;;11.80;84.70;;;;;;6227758;28;20050;-78
2021/05/02 07:44:04;;;;;;;21.23;16.98;;;12.30;82.50;;;;;;6227561;28;20125;-78
2021/05/02 07:47:05;;;;;;;19.25;16.45;;;12.50;79.00;;;;;;6227394;28;20571;-77
2021/05/02 07:50:08;;;;;;;21.27;18.52;;;12.70;78.00;;;;;;6225956;28;20042;-77
2021/05/02 07:53:10;;;;;;;17.98;15.82;;;12.70;76.70;;;;;;6226077;28;20486;-77
2021/05/02 07:56:11;;;;;;;17.48;15.60;;;13.00;88.10;;;;;;6225894;28;20120;-77
2021/05/02 07:59:13;;;;;;;17.55;15.02;;;13.20;81.40;;;;;;6226813;28;20050;-78
2021/05/02 08:02:15;;;;;;;16.67;15.07;;;13.20;72.80;;;;;;6227131;28;20514;-78
2021/05/02 08:05:17;;;;;;;15.75;14.07;;;13.50;70.20;;;;;;6226988;28;20512;-78
2021/05/02 08:08:19;;;;;;;19.90;14.70;;;14.10;68.60;;;;;;6228162;28;20065;-77
2021/05/02 08:11:20;;;;;;;16.85;15.25;;;14.30;66.20;;;;;;6228872;28;20364;-78
2021/05/02 08:14:23;;;;;;;19.98;17.55;;;14.70;63.90;;;;;;6228634;28;20092;-78
2021/05/02 08:17:24;;;;;;;16.83;15.13;;;15.20;62.20;;;;;;6228119;28;20136;-77
2021/05/02 08:20:26;;;;;;;22.10;19.83;;;15.70;60.50;;;;;;6227949;28;20129;-78
2021/05/02 08:23:27;;;;;;;17.60;15.75;;;16.00;58.00;;;;;;6227852;28;20133;-77
2021/05/02 08:26:28;;;;;;;18.13;16.27;;;16.30;56.70;;;;;;6226798;28;20077;-77
2021/05/02 08:29:30;;;;;;;17.88;16.27;;;16.60;55.70;;;;;;6227229;28;20133;-77
2021/05/02 08:32:32;;;;;;;18.10;15.77;;;16.70;54.60;;;;;;6227491;28;20114;-78
2021/05/02 08:35:34;;;;;;;15.57;12.70;;;17.10;54.30;;;;;;6229255;28;20136;-78
2021/05/02 08:38:35;;;;;;;14.93;13.38;;;17.30;52.20;;;;;;6224424;28;20145;-77
2021/05/02 08:41:37;;;;;;;15.48;14.07;;;17.30;51.70;;;;;;6227890;28;20057;-78
2021/05/02 08:44:41;;;;;;;14.40;12.90;;;17.50;51.60;;;;;;6227647;28;20066;-78
2021/05/02 08:47:42;;;;;;;17.38;13.77;;;17.30;50.70;;;;;;6228487;28;20050;-78
2021/05/02 08:50:44;;;;;;;16.60;14.73;;;16.90;51.40;;;;;;6228699;28;20153;-78
2021/05/02 08:53:45;;;;;;;17.15;15.48;;;16.30;52.50;;;;;;6229664;28;20119;-77
2021/05/02 08:56:47;;;;;;;16.90;15.20;;;15.90;53.60;;;;;;6228501;28;20041;-78
2021/05/02 08:59:50;;;;;;;18.80;16.90;;;15.60;54.30;;;;;;6229465;28;20069;-79
2021/05/02 09:02:56;;;;;;;25.33;22.90;;;15.40;54.20;;;;;;6250409;28;20045;-77
2021/05/02 09:05:57;;;;;;;20.92;18.77;;;15.30;55.10;;;;;;6252718;28;20045;-77
2021/05/02 09:09:02;;;;;;;18.00;16.13;;;15.30;56.20;;;;;;6254428;28;20077;-79
2021/05/02 09:12:04;;;;;;;28.17;18.08;;;15.50;56.20;;;;;;6251449;28;20099;-78
2021/05/02 09:15:10;;;;;;;20.45;16.55;;;15.80;54.50;;;;;;6248587;28;20134;-79
2021/05/02 09:18:37;;;;;;;16.75;15.15;;;16.20;53.10;;;;;;6247872;28;20050;-78
2021/05/02 09:21:38;;;;;;;15.25;13.50;;;17.00;51.20;;;;;;6237474;28;20136;-78
2021/05/02 09:24:40;;;;;;;17.55;15.75;;;17.30;49.60;;;;;;6222924;28;20049;-78
2021/05/02 09:27:48;;;;;;;19.08;15.95;;;17.10;49.20;;;;;;6222725;28;20041;-77
2021/05/02 09:31:06;;;;;;;18.52;15.70;;;16.60;49.50;;;;;;6223687;28;20200;-78
2021/05/02 09:34:11;;;;;;;17.20;15.40;;;16.40;51.90;;;;;;6222630;28;20042;-76
2021/05/02 09:37:12;;;;;;;19.77;17.00;;;16.20;53.00;;;;;;6222528;28;20475;-77
2021/05/02 09:40:17;;;;;;;27.10;18.75;;;15.80;54.90;;;;;;6222096;28;20392;-78
2021/05/02 09:43:46;;;;;;;19.40;17.45;;;15.40;54.60;;;;;;6223085;28;20572;-78
2021/05/02 09:46:50;;;;;;;28.00;19.42;;;14.80;58.90;;;;;;6230682;28;20053;-78
2021/05/02 09:50:13;;;;;;;18.63;16.63;;;14.20;64.10;;;;;;6223022;28;20090;-77
2021/05/02 09:53:16;;;;;;;13.55;12.25;;;13.70;67.00;;;;;;6228045;28;20443;-77
2021/05/02 09:56:17;;;;;;;17.75;15.27;;;13.30;67.80;;;;;;6229303;28;20065;-77
2021/05/02 09:59:30;;;;;;;17.30;14.60;;;13.00;68.70;;;;;;6229161;28;20057;-77
2021/05/02 10:02:33;;;;;;;17.05;15.30;;;13.20;67.60;;;;;;6241647;28;20124;-76
2021/05/02 10:05:37;;;;;;;20.55;18.48;;;13.70;67.80;;;;;;6243255;28;20049;-76
2021/05/02 10:08:39;;;;;;;19.83;16.52;;;14.50;62.90;;;;;;6243865;28;20402;-77
2021/05/02 10:11:41;;;;;;;16.23;14.73;;;15.10;62.80;;;;;;6242174;28;20061;-77
2021/05/02 10:14:44;;;;;;;17.45;14.60;;;15.60;60.20;;;;;;6241723;28;20077;-77
2021/05/02 10:17:49;;;;;;;16.52;14.93;;;15.80;57.30;;;;;;6241264;28;20088;-77
2021/05/02 10:20:51;;;;;;;20.27;18.38;;;15.80;57.40;;;;;;6244200;28;20053;-77
2021/05/02 10:23:52;;;;;;;19.00;17.17;;;15.40;66.60;;;;;;6233849;28;20176;-77
2021/05/02 10:26:55;;;;;;;19.90;18.02;;;14.70;69.20;;;;;;6247767;28;20496;-77
2021/05/02 10:29:58;;;;;;;21.20;17.52;;;13.80;68.30;;;;;;6240066;28;20069;-76
2021/05/02 10:33:05;;;;;;;19.67;17.73;;;12.90;73.90;;;;;;6253315;28;20103;-76
2021/05/02 10:36:09;;;;;;;19.05;17.15;;;12.80;76.70;;;;;;6253938;28;20466;-78
2021/05/02 10:39:13;;;;;;;18.92;16.67;;;12.90;77.00;;;;;;6253488;28;20045;-77
2021/05/02 10:42:50;;;;;;;23.75;21.48;;;13.10;73.60;;;;;;6252797;28;20057;-77
2021/05/02 10:45:54;;;;;;;20.75;18.83;;;13.40;73.80;;;;;;6250469;28;20049;-78
2021/05/02 10:48:56;;;;;;;18.83;16.42;;;14.10;73.50;;;;;;6256000;28;20042;-78
2021/05/02 10:52:18;;;;;;;18.42;15.88;;;14.90;73.30;;;;;;6253835;28;20049;-78
2021/05/02 10:55:19;;;;;;;20.27;16.63;;;15.70;69.80;;;;;;6254253;28;20127;-78
2021/05/02 10:58:23;;;;;;;17.13;14.60;;;16.30;64.90;;;;;;6255478;28;20045;-78
2021/05/02 11:01:25;;;;;;;16.30;12.27;;;16.80;57.80;;;;;;6251371;28;20570;-77
2021/05/02 11:04:55;;;;;;;23.50;14.38;;;17.10;54.00;;;;;;6247642;28;20045;-78
2021/05/02 11:07:57;;;;;;;14.18;12.85;;;17.10;57.80;;;;;;6251086;28;20045;-78
2021/05/02 11:10:58;;;;;;;12.52;10.82;;;16.70;56.30;;;;;;6251499;28;20049;-78
2021/05/02 11:14:32;;;;;;;13.70;11.57;;;16.10;56.90;;;;;;6243613;28;20137;-78
2021/05/02 11:17:37;;;;;;;10.95;9.95;;;15.00;62.60;;;;;;6246356;28;20072;-78
2021/05/02 11:20:47;;;;;;;10.20;9.13;;;14.40;61.30;;;;;;6250205;28;20038;-77
2021/05/02 11:23:57;;;;;;;7.55;6.93;;;14.80;63.40;;;;;;6250094;28;20057;-77
2021/05/02 11:27:02;;;;;;;9.05;7.90;;;16.00;58.60;;;;;;6254200;28;20080;-78
2021/05/02 11:30:16;;;;;;;12.00;10.93;;;16.90;55.20;;;;;;6257209;28;20045;-78
2021/05/02 11:33:23;;;;;;;9.15;8.38;;;17.60;51.90;;;;;;6253247;28;20050;-78
2021/05/02 11:36:38;;;;;;;7.45;6.80;;;18.00;50.90;;;;;;6252877;28;20074;-78
2021/05/02 11:39:42;;;;;;;8.75;7.95;;;18.30;49.50;;;;;;6252058;28;20606;-78
2021/05/02 11:42:51;;;;;;;8.82;8.02;;;18.40;47.60;;;;;;6250931;28;20084;-78
2021/05/02 11:45:53;;;;;;;9.57;8.77;;;18.40;46.00;;;;;;6250603;28;20053;-77
2021/05/02 11:48:55;;;;;;;9.38;7.60;;;18.10;45.30;;;;;;6249792;28;20479;-78
2021/05/02 11:51:57;;;;;;;8.65;6.97;;;17.70;45.30;;;;;;6252303;28;20061;-79
2021/05/02 11:54:59;;;;;;;10.07;7.82;;;17.40;42.80;;;;;;6253843;28;20107;-78
2021/05/02 11:58:05;;;;;;;7.93;6.90;;;17.40;45.20;;;;;;6255123;28;20522;-79
2021/05/02 12:01:14;;;;;;;8.30;6.35;;;17.80;42.90;;;;;;6255476;28;20048;-78
2021/05/02 12:04:17;;;;;;;7.68;6.97;;;17.70;42.00;;;;;;6251670;28;20095;-78
2021/05/02 12:07:22;;;;;;;6.35;5.53;;;17.50;42.40;;;;;;6253490;28;20080;-78
2021/05/02 12:10:24;;;;;;;8.50;7.15;;;17.40;41.40;;;;;;6251263;28;20073;-77
2021/05/02 12:13:33;;;;;;;9.77;8.38;;;17.30;40.90;;;;;;6243095;28;20140;-78
2021/05/02 12:16:35;;;;;;;6.65;6.03;;;17.40;42.00;;;;;;6229643;28;20068;-78
2021/05/02 12:19:37;;;;;;;7.22;6.57;;;17.60;42.40;;;;;;6228547;28;20046;-78
2021/05/02 12:22:46;;;;;;;5.38;4.95;;;17.70;40.20;;;;;;6228149;28;20053;-79
2021/05/02 12:25:47;;;;;;;5.72;5.10;;;18.10;39.60;;;;;;6228238;28;20488;-78
2021/05/02 12:28:50;;;;;;;6.28;5.65;;;18.60;38.70;;;;;;6227281;28;20064;-78
2021/05/02 12:31:53;;;;;;;5.88;4.35;;;19.00;38.70;;;;;;6226398;28;20050;-78
2021/05/02 12:34:54;;;;;;;5.00;4.35;;;19.20;37.20;;;;;;6225579;28;20056;-76
2021/05/02 12:37:56;;;;;;;5.38;4.85;;;19.30;36.40;;;;;;6223680;28;20123;-77
2021/05/02 12:40:58;;;;;;;4.15;3.35;;;19.20;37.00;;;;;;6223092;28;20184;-77
2021/05/02 12:44:17;;;;;;;5.30;4.85;;;18.90;37.30;;;;;;6226062;28;20438;-78
2021/05/02 12:47:19;;;;;;;;;;;18.80;38.30;;;;;;6225973;28;20567;-78
2021/05/02 12:50:23;;;;;;;4.15;3.67;;;18.50;39.50;;;;;;6223353;28;20009;-77
2021/05/02 12:53:41;;;;;;;4.97;4.05;;;18.10;38.10;;;;;;6223023;28;20137;-77
2021/05/02 12:56:43;;;;;;;3.70;3.47;;;17.90;39.20;;;;;;6223407;28;20042;-77
2021/05/02 12:59:48;;;;;;;4.93;3.47;;;18.00;38.50;;;;;;6222754;28;20188;-77
2021/05/02 13:02:50;;;;;;;3.35;3.05;;;18.10;38.60;;;;;;6224656;28;20246;-77
2021/05/02 13:06:01;;;;;;;3.83;3.42;;;18.00;36.70;;;;;;6235509;28;20077;-79
2021/05/02 13:09:07;;;;;;;2.97;2.65;;;17.90;37.20;;;;;;6223198;28;20121;-77
2021/05/02 13:12:09;;;;;;;5.78;3.30;;;17.70;36.40;;;;;;6224478;28;20049;-77
2021/05/02 13:15:11;;;;;;;3.55;2.53;;;17.40;36.80;;;;;;6247092;28;20060;-77
2021/05/02 13:18:15;;;;;;;6.35;3.33;;;17.40;37.20;;;;;;6249128;28;20072;-78
2021/05/02 13:21:23;;;;;;;2.13;1.90;;;17.70;38.70;;;;;;6248256;28;20171;-77
2021/05/02 13:24:26;;;;;;;2.78;2.53;;;18.20;36.50;;;;;;6246969;28;20053;-77
2021/05/02 13:27:49;;;;;;;2.72;2.53;;;18.10;35.70;;;;;;6247709;28;20072;-77
2021/05/02 13:30:50;;;;;;;3.33;2.45;;;17.80;36.20;;;;;;6247490;28;20049;-77
2021/05/02 13:33:57;;;;;;;4.50;3.20;;;17.60;36.00;;;;;;6247312;28;20053;-77
2021/05/02 13:36:59;;;;;;;2.25;1.80;;;17.90;35.40;;;;;;6247282;28;20580;-77
2021/05/02 13:40:01;;;;;;;3.22;2.85;;;18.20;34.60;;;;;;6247535;28;20147;-77
2021/05/02 13:43:03;;;;;;;22.45;15.20;;;18.30;33.70;;;;;;6248138;28;20136;-77
2021/05/02 13:46:04;;;;;;;11.63;9.93;;;18.20;33.20;;;;;;6248393;28;20073;-77
2021/05/02 13:49:06;;;;;;;51.83;37.75;;;18.20;32.80;;;;;;6247305;28;20112;-77
2021/05/02 13:52:07;;;;;;;9.88;8.13;;;18.10;33.40;;;;;;6248628;28;20037;-77
2021/05/02 13:55:11;;;;;;;14.77;12.02;;;18.00;34.20;;;;;;6248936;28;20113;-78
2021/05/02 13:58:12;;;;;;;17.58;13.85;;;17.80;35.50;;;;;;6248621;28;20041;-78
2021/05/02 14:01:14;;;;;;;7.57;5.25;;;17.50;36.90;;;;;;6247173;28;20041;-78
2021/05/02 14:04:15;;;;;;;8.60;6.38;;;17.30;37.00;;;;;;6247123;28;20045;-78
2021/05/02 14:07:17;;;;;;;11.25;8.65;;;17.20;36.60;;;;;;6235075;28;20065;-78
2021/05/02 14:10:19;;;;;;;22.67;19.00;;;17.00;36.40;;;;;;6225309;28;20132;-77
2021/05/02 14:13:20;;;;;;;11.50;9.45;;;17.00;36.90;;;;;;6233754;28;20674;-77
2021/05/02 14:16:21;;;;;;;14.07;11.88;;;17.00;37.00;;;;;;6249375;28;20144;-78
2021/05/02 14:19:23;;;;;;;11.05;9.25;;;17.00;37.00;;;;;;6248103;28;20498;-77
2021/05/02 14:22:24;;;;;;;10.50;7.45;;;16.90;37.20;;;;;;6247377;28;20132;-78
2021/05/02 14:25:26;;;;;;;8.32;6.28;;;17.00;36.50;;;;;;6246523;28;20045;-77
2021/05/02 14:28:28;;;;;;;26.10;20.20;;;17.10;36.30;;;;;;6246164;28;20128;-77
2021/05/02 14:31:29;;;;;;;8.23;6.53;;;17.30;35.10;;;;;;6246605;28;20472;-77
2021/05/02 14:34:31;;;;;;;10.77;8.88;;;17.30;35.70;;;;;;6246216;28;20073;-77
2021/05/02 14:37:32;;;;;;;7.68;6.88;;;17.30;35.10;;;;;;6248608;28;20045;-77
2021/05/02 14:40:34;;;;;;;12.45;11.23;;;17.20;34.90;;;;;;6251410;28;20056;-77
2021/05/02 14:43:36;;;;;;;10.98;9.88;;;17.10;35.30;;;;;;6251448;28;20503;-77
2021/05/02 14:46:37;;;;;;;6.85;6.18;;;17.00;35.60;;;;;;6250798;28;20183;-77
2021/05/02 14:49:39;;;;;;;3.25;2.95;;;16.90;36.00;;;;;;6251069;28;20600;-77
2021/05/02 14:52:41;;;;;;;4.70;4.30;;;16.80;36.30;;;;;;6250878;28;20042;-77
2021/05/02 14:55:43;;;;;;;4.18;3.78;;;16.70;36.20;;;;;;6251247;28;20064;-77
2021/05/02 14:58:44;;;;;;;4.40;2.63;;;16.60;36.60;;;;;;6250905;28;20132;-77
2021/05/02 15:01:46;;;;;;;3.05;2.83;;;16.70;36.80;;;;;;6250438;28;20050;-77
2021/05/02 15:04:47;;;;;;;2.75;1.98;;;16.70;36.10;;;;;;6250387;28;20037;-77
2021/05/02 15:07:49;;;;;;;2.60;2.05;;;16.60;36.50;;;;;;6246375;28;20084;-77
2021/05/02 15:10:51;;;;;;;2.10;1.80;;;16.70;37.30;;;;;;6250344;28;20061;-77
2021/05/02 15:13:52;;;;;;;1.92;1.80;;;16.60;37.20;;;;;;6256454;28;20447;-78
2021/05/02 15:16:53;;;;;;;2.80;1.85;;;16.50;37.50;;;;;;6256899;28;20065;-78
2021/05/02 15:19:55;;;;;;;3.03;2.72;;;16.40;38.10;;;;;;6250784;28;20136;-77
2021/05/02 15:22:56;;;;;;;22.55;11.32;;;16.20;37.60;;;;;;6250460;28;20103;-77
2021/05/02 15:25:59;;;;;;;6.43;4.47;;;16.00;38.00;;;;;;6250055;28;20053;-77
2021/05/02 15:29:00;;;;;;;3.40;2.78;;;15.90;38.30;;;;;;6250051;28;20136;-77
2021/05/02 15:32:01;;;;;;;4.88;2.65;;;15.80;38.80;;;;;;6250414;28;20598;-77
2021/05/02 15:35:03;;;;;;;11.80;10.02;;;15.70;40.30;;;;;;6252907;28;20135;-78
2021/05/02 15:38:05;;;;;;;21.77;19.77;;;15.70;41.30;;;;;;6254846;28;20495;-78
2021/05/02 15:41:07;;;;;;;11.68;10.55;;;15.60;40.30;;;;;;6252804;28;20131;-77
2021/05/02 15:44:10;;;;;;;8.82;8.02;;;15.40;40.80;;;;;;6253735;28;20561;-77